Main page
METAR-TAF:

METAR-TAF

Airports :

Padua Airport

Padua, Italy

latitude: 45-23-45N, longitude: 11-50-53E, elevation: 13 m

Current weather observation

The report was made 3 hours and 54 minutes ago, at 13:50 UTC
Wind 5 kt from the South/Southeast, varying between East/Southeast and Southwest
Temperature 24°C
Humidity 57%
Pressure 1016 hPa
Visibility 10 km or more
Few clouds at a height of 3000 ft

METAR: LIPU 141350Z 16005KT 120V230 9999 FEW030 24/15 Q1016

Time: 19:44 (17:44 UTC)


TAF: missing

Weather observations and forecasts of more than 4000 airports (METAR and TAF reports).

The available stations are represented by yellow and red dots on the map.

Hover mouse over dot to see the name of the station.

Then click to see weather observations and forecasts.

To change the map : click on the green buttons with a black cross to zoom in, on the green button with a dash to zoom out, or on the green arrows for adjacent maps.


METAR-TAF: